Weather reports worldwide

Advertisment
Sciacca, Italy (16436): temperature & dewpoint: 11.09.2019 13:00:00 - 17.09.2019 13:00:00 (CEST)Sciacca, Italy (16436): wind speed: 11.09.2019 13:00:00 - 17.09.2019 13:00:00 (CEST)Sciacca, Italy (16436): wind direction: 11.09.2019 13:00:00 - 17.09.2019 13:00:00 (CEST)Sciacca, Italy (16436): reduced air pressure: 11.09.2019 13:00:00 - 17.09.2019 13:00:00 (CEST)
Date & Time tt [°C] td [°C] ff [km/h] ff [kn] dd ppp [hPa]
17.09.2019 13:00:00 - - - - - -
17.09.2019 12:00:00 25,2 21,8 9 5 SW 1027,9
17.09.2019 11:00:00 24,9 21,9 5 3 SSW 1028,2
17.09.2019 10:00:00 23,7 22,1 2 1 SSW 1028,3
17.09.2019 09:00:00 22,0 20,9 0 0 N 1028,5
17.09.2019 08:00:00 19,7 19,2 0 0 N 1028,4
17.09.2019 07:00:00 18,7 18,0 0 0 N 1028,5
17.09.2019 06:00:00 19,4 18,7 0 0 N 1028,0
17.09.2019 05:00:00 19,3 18,6 0 0 N 1028,1
17.09.2019 04:00:00 19,3 18,6 5 3 NNE 1028,4
17.09.2019 03:00:00 19,3 18,4 0 0 N 1028,9
17.09.2019 02:00:00 19,9 18,8 0 0 N 1028,9
17.09.2019 01:00:00 21,5 20,6 0 0 N 1028,7
17.09.2019 00:00:00 20,9 20,2 0 0 N 1029,0
16.09.2019 23:00:00 21,0 20,1 0 0 N 1028,9
16.09.2019 22:00:00 21,2 20,0 0 0 N 1028,8
16.09.2019 21:00:00 22,3 21,1 2 1 WNW 1028,2
16.09.2019 20:00:00 22,7 21,1 0 0 N 1027,8
16.09.2019 19:00:00 23,8 22,0 5 3 SW 1027,6
16.09.2019 18:00:00 24,5 22,3 11 6 WSW 1027,7
16.09.2019 17:00:00 25,2 22,4 13 7 WSW 1028,1
16.09.2019 16:00:00 25,4 22,0 13 7 SW 1028,3
16.09.2019 15:00:00 25,8 22,0 13 7 WSW 1028,7
16.09.2019 14:00:00 26,1 22,1 9 5 SW 1029,3
16.09.2019 13:00:00 25,5 21,5 5 3 SW 1029,7
16.09.2019 12:00:00 25,3 20,3 8 4 SW 1030,1
16.09.2019 11:00:00 24,6 20,4 4 2 SW 1030,5
16.09.2019 10:00:00 24,0 21,1 0 0 N 1030,6
16.09.2019 09:00:00 21,3 19,7 0 0 N 1030,8
16.09.2019 08:00:00 18,0 16,6 0 0 N 1031,0
16.09.2019 07:00:00 17,5 16,1 0 0 N 1030,9
16.09.2019 06:00:00 17,4 16,0 0 0 N 1030,7
16.09.2019 05:00:00 17,9 16,7 0 0 N 1030,7
16.09.2019 04:00:00 17,9 16,7 0 0 N 1030,9
16.09.2019 03:00:00 17,6 16,6 0 0 N 1031,2
16.09.2019 02:00:00 18,8 17,9 2 1 NNE 1031,4
16.09.2019 01:00:00 18,7 17,7 5 3 NE 1031,7
16.09.2019 00:00:00 19,8 18,7 0 0 N 1031,8
15.09.2019 23:00:00 21,1 20,0 0 0 N 1031,9
15.09.2019 22:00:00 20,7 19,5 0 0 N 1031,8
15.09.2019 21:00:00 21,2 19,8 0 0 N 1031,3
15.09.2019 20:00:00 22,6 20,8 0 0 N 1030,7
15.09.2019 19:00:00 24,1 22,3 0 0 N 1030,5
15.09.2019 18:00:00 24,7 21,2 0 0 N 1030,6
15.09.2019 17:00:00 25,3 22,5 4 2 S 1030,6
15.09.2019 16:00:00 25,3 23,5 5 3 S 1030,9
15.09.2019 15:00:00 25,1 23,3 8 4 S 1031,6
15.09.2019 14:00:00 25,8 23,4 8 4 NE 1032,2
15.09.2019 13:00:00 25,5 22,3 8 4 S 1032,6
15.09.2019 12:00:00 25,4 22,0 8 4 SSE 1033,2
15.09.2019 11:00:00 25,1 22,5 2 1 SSE 1033,6
15.09.2019 10:00:00 24,5 19,9 5 3 ESE 1034,1
15.09.2019 09:00:00 22,8 19,9 0 0 N 1034,2
15.09.2019 08:00:00 20,1 18,3 0 0 N 1034,0
15.09.2019 07:00:00 19,4 17,3 0 0 N 1033,6
15.09.2019 06:00:00 19,0 15,8 8 4 NNE 1032,9
15.09.2019 05:00:00 18,5 15,9 0 0 N 1032,8
15.09.2019 04:00:00 18,6 16,3 0 0 N 1032,9
15.09.2019 03:00:00 19,3 15,9 0 0 N 1032,9
15.09.2019 02:00:00 19,2 16,0 0 0 N 1033,2
15.09.2019 01:00:00 19,9 15,7 2 1 NE 1033,0
15.09.2019 00:00:00 20,2 18,3 8 4 NE 1033,0
14.09.2019 23:00:00 20,3 18,7 4 2 NNE 1033,3
14.09.2019 22:00:00 21,1 20,4 0 0 N 1033,1
14.09.2019 21:00:00 21,7 20,5 0 0 N 1032,8
14.09.2019 20:00:00 23,1 21,7 2 1 WSW 1032,2
14.09.2019 19:00:00 23,9 22,1 9 5 W 1031,8
14.09.2019 18:00:00 24,8 23,0 11 6 WSW 1031,7
14.09.2019 17:00:00 25,8 21,8 13 7 WSW 1031,8
14.09.2019 16:00:00 25,9 22,5 15 8 W 1032,3
14.09.2019 15:00:00 25,6 22,0 15 8 WSW 1032,9
14.09.2019 14:00:00 25,9 21,9 9 5 SW 1033,4
14.09.2019 13:00:00 25,7 20,2 9 5 SW 1033,9
14.09.2019 12:00:00 25,7 15,6 5 3 SSW 1034,1
14.09.2019 11:00:00 25,4 17,8 0 0 N 1034,2
14.09.2019 10:00:00 23,9 18,9 0 0 N 1034,7
14.09.2019 09:00:00 22,0 20,2 0 0 N 1034,8
14.09.2019 08:00:00 19,4 17,8 0 0 N 1034,7
14.09.2019 07:00:00 17,6 15,3 0 0 N 1034,3
14.09.2019 06:00:00 17,8 15,2 0 0 N 1034,1
14.09.2019 05:00:00 18,7 17,1 0 0 N 1033,7
14.09.2019 04:00:00 19,5 16,1 0 0 N 1034,0
14.09.2019 03:00:00 20,1 15,9 0 0 N 1034,3
14.09.2019 02:00:00 20,7 18,8 0 0 N 1034,9
14.09.2019 01:00:00 19,9 14,6 0 0 N 1035,0
14.09.2019 00:00:00 20,0 15,1 0 0 N 1034,6
13.09.2019 23:00:00 20,6 12,0 0 0 N 1034,6
13.09.2019 22:00:00 22,5 13,5 0 0 N 1034,0
13.09.2019 21:00:00 23,6 16,3 0 0 N 1033,3
13.09.2019 20:00:00 25,8 17,6 11 6 WNW 1032,5
13.09.2019 19:00:00 26,9 14,2 8 4 WSW 1032,5
13.09.2019 18:00:00 27,9 10,1 9 5 WSW 1032,7
13.09.2019 17:00:00 27,9 13,7 11 6 W 1032,9
13.09.2019 16:00:00 27,4 15,4 15 8 W 1033,2
13.09.2019 15:00:00 27,6 13,5 11 6 WSW 1033,5
13.09.2019 14:00:00 27,7 14,6 11 6 N 1033,7
13.09.2019 13:00:00 26,3 18,9 13 7 SW 1034,2
13.09.2019 12:00:00 26,4 16,3 5 3 SW 1034,4
13.09.2019 11:00:00 24,9 18,8 11 6 WSW 1034,7
13.09.2019 10:00:00 24,6 20,0 0 0 N 1034,9
13.09.2019 09:00:00 23,0 19,1 0 0 N 1034,7
13.09.2019 08:00:00 22,5 16,5 9 5 NNE 1034,6
13.09.2019 07:00:00 20,8 16,1 4 2 NNE 1034,7
13.09.2019 06:00:00 19,9 18,1 9 5 NNE 1034,2
13.09.2019 05:00:00 18,8 17,9 0 0 N 1034,2
13.09.2019 04:00:00 19,0 18,1 0 0 N 1034,4
13.09.2019 03:00:00 19,5 18,3 0 0 N 1034,6
13.09.2019 02:00:00 20,5 19,4 0 0 N 1034,6
13.09.2019 01:00:00 21,4 20,7 11 6 NE 1034,6
13.09.2019 00:00:00 21,4 20,7 5 3 NE 1035,0
12.09.2019 23:00:00 21,8 20,9 5 3 NNE 1035,0
12.09.2019 22:00:00 22,2 21,1 4 2 NNE 1034,6
12.09.2019 21:00:00 22,8 21,6 5 3 NE 1034,0
12.09.2019 20:00:00 23,9 22,1 4 2 ENE 1033,4
12.09.2019 19:00:00 25,6 22,2 15 8 NW 1032,4
12.09.2019 18:00:00 26,1 20,1 18 10 W 1032,2
12.09.2019 17:00:00 27,2 22,1 21 11 W 1032,1
12.09.2019 16:00:00 26,7 20,5 18 10 WSW 1032,2
12.09.2019 15:00:00 27,0 19,8 13 7 SW 1032,8
12.09.2019 14:00:00 27,0 16,5 9 5 SSW 1033,3
12.09.2019 13:00:00 26,7 19,3 8 4 SW 1033,7
12.09.2019 12:00:00 27,1 19,6 2 1 SSW 1033,9
12.09.2019 11:00:00 26,2 19,5 4 2 SSW 1034,3
12.09.2019 10:00:00 25,5 20,9 0 0 N 1034,3
12.09.2019 09:00:00 23,8 22,0 0 0 N 1034,3
12.09.2019 08:00:00 21,5 20,3 4 2 NNE 1033,7
12.09.2019 07:00:00 20,1 18,9 5 3 NNE 1033,4
12.09.2019 06:00:00 20,2 18,8 0 0 N 1032,6
12.09.2019 05:00:00 20,4 18,8 4 2 NE 1031,8
12.09.2019 04:00:00 20,6 19,0 4 2 NNE 1031,7
12.09.2019 03:00:00 20,8 19,2 0 0 N 1031,6
12.09.2019 02:00:00 21,7 19,7 0 0 N 1031,5
12.09.2019 01:00:00 22,1 19,2 8 4 NNE 1030,9
12.09.2019 00:00:00 21,5 19,5 5 3 NE 1030,3
11.09.2019 23:00:00 21,8 20,0 5 3 NNE 1029,9
11.09.2019 22:00:00 22,0 20,2 0 0 N 1029,2
11.09.2019 21:00:00 23,5 20,2 0 0 N 1028,4
11.09.2019 20:00:00 24,1 20,2 8 4 NE 1027,3
11.09.2019 19:00:00 25,2 21,8 2 1 W 1026,9
11.09.2019 18:00:00 25,7 20,7 13 7 W 1026,9
11.09.2019 17:00:00 25,4 22,2 13 7 WSW 1026,8
11.09.2019 16:00:00 25,8 22,2 15 8 SW 1026,6
11.09.2019 15:00:00 25,5 20,9 13 7 SW 1026,6
11.09.2019 14:00:00 25,7 20,2 11 6 WSW 1026,4
11.09.2019 13:00:00 25,6 20,3 9 5 WSW 1026,4

tt = temperature
td = dewpoint
ff = wind speed
dd = wind direction
ppp = reduced air pressure

Next stations